Cow Island, Louisiana
Current Conditions -  °F | °C
As of 11:10 AM on Friday 31 Oct 2014 (Local Time) from KIYA Reporting Station
Clear Clear  
Wind Chill: 71°   Ceiling: Unl
Heat Index: 71°   Visibility: 10mi
Dew Point: 47°   Wind: 14mph
Humidity: 42%   Direction: 340°NNW
Pressure: 30.12"   Gusts: NA
Location:  29.8955°N, 92.208°W
Report Text: KIYA 311610Z AUTO 34012KT 10SM CLR 22/08 A3012 RMK AO2 T02150082
Loading
Personal Weather Stations






























Interactive Weather Map
Tropical Storm Tracking
New forecast layout! Learn more

10-Day Weather Forecast

Advertisements
Track Severe Weather on mobile